MAPA DE AEROPUERTO

INFORMACIÓN METAR y TAF

METAR FOR LEAL
ADDS - METARS form results

(2039 UTC 29 October 2020)
Data provider http://aviationweather.gov/metar/data/
 
METAR text: LEAL 292030Z 29003KT CAVOK 15/13 Q1026 NOSIG
Conditions at: LEAL (ALICANTE/EL ALTE, ES) observed 2030 UTC 29 October 2020
Temperature: 15.0°C (59°F)
Dewpoint: 13.0°C (55°F) [RH = 88%]
Pressure (altimeter): 30.30 inches Hg (1026.0 mb)
Winds: from the WNW (290 degrees) at 3 MPH (3 knots; 1.5 m/s)
Visibility: 6 or more miles (10+ km)
Ceiling: ceiling and visibility are OK
Clouds: unknown
Weather: no significant weather observed at this time

METAR text: LEAL 292000Z VRB02KT CAVOK 16/14 Q1026 NOSIG
Conditions at: LEAL (ALICANTE/EL ALTE, ES) observed 2000 UTC 29 October 2020
Temperature: 16.0°C (61°F)
Dewpoint: 14.0°C (57°F) [RH = 88%]
Pressure (altimeter): 30.30 inches Hg (1026.0 mb)
Winds: variable direction winds at 2 MPH (2 knots; 1.0 m/s)
Visibility: 6 or more miles (10+ km)
Ceiling: ceiling and visibility are OK
Clouds: unknown
Weather: no significant weather observed at this time

Forecast for: LEAL (ALICANTE/EL ALTE, ES)
Text: TAF LEAL 291700Z 2918/3018 VRB04KT 9999 FEW010 TX24/3012Z TN12/3005Z
Forecast period: 1800 UTC 29 October 2020 to 1200 UTC 30 October 2020
Forecast type: FROM: standard forecast or significant change
Winds: variable direction winds at 5 MPH (4 knots; 2.1 m/s)
Visibility: 6 or more miles (10+ km)
Ceiling: at least 12,000 feet AGL
Clouds: few clouds at 1000 feet AGL
Weather: no significant weather forecast for this period
Text: PROB30
Forecast period: 1800 UTC 29 October 2020 to 0600 UTC 30 October 2020
Forecast type: TEMPORARY: The following changes expected for less than half the time period
Visibility: missing
Ceiling: 1000 feet AGL
Clouds: broken clouds at 1000 feet AGL
Weather: no significant weather forecast for this period
Text: TEMPO 2918/3006 BKN010
Forecast period: 1200 to 1600 UTC 30 October 2020
Forecast type: BECOMING: Conditions expected to become as follows by 1400 UTC 30 October 2020
Winds: from the ESE (110 degrees) at 9 MPH (8 knots; 4.1 m/s)
Visibility: 6 or more miles (10+ km)
Ceiling: at least 12,000 feet AGL
Clouds: few clouds at 1000 feet AGL
Weather: no significant weather forecast for this period
Text: BECMG 3012/3014 11008KT
Forecast period: 1600 to 1800 UTC 30 October 2020
Forecast type: BECOMING: Conditions expected to become as follows by 1800 UTC 30 October 2020
Winds: variable direction winds at 5 MPH (4 knots; 2.1 m/s)
Visibility: 6 or more miles (10+ km)
Ceiling: at least 12,000 feet AGL
Clouds: few clouds at 1000 feet AGL
Weather: no significant weather forecast for this period